This is the latest recevied weather packets stored in our database for station/object DW2488. If no packets are shown the sender has not sent any weather packets the latest 10 day(s).
| Time | Temp. | Humidity | Pressure | Rain* | Wind** | Luminosity | Snow |
|---|---|---|---|---|---|---|---|
| 1778054593 | 16.11° C | 70% | 1016.3 hPa | 0 mm | - | 0 W/m² | - |
| 1778053690 | 16.67° C | 68% | 1016.3 hPa | 0 mm | - | 0 W/m² | - |
| 1778052792 | 17.78° C | 65% | 1016.2 hPa | 0 mm | - | 0 W/m² | - |
| 1778051892 | 19.44° C | 62% | 1016.2 hPa | 0 mm | - | 0 W/m² | - |
| 1778050996 | 20.56° C | 59% | 1016.2 hPa | 0 mm | - | 7 W/m² | - |
| 1778050092 | 21.11° C | 57% | 1016 hPa | 0 mm | - | 14 W/m² | - |
| 1778049191 | 21.67° C | 55% | 1016 hPa | 0 mm | - | 35 W/m² | - |
| 1778048292 | 22.22° C | 55% | 1016.2 hPa | 0 mm | - | 76 W/m² | - |
| 1778047391 | 22.78° C | 53% | 1016.4 hPa | 0 mm | - | 123 W/m² | - |
| 1778046493 | 22.78° C | 52% | 1016.5 hPa | 0 mm | - | 176 W/m² | - |
| 1778045592 | 22.78° C | 52% | 1016.6 hPa | 0 mm | - | 232 W/m² | - |
| 1778044692 | 23.33° C | 55% | 1016.7 hPa | 0 mm | - | 276 W/m² | - |
| 1778043793 | 22.22° C | 54% | 1016.8 hPa | 0 mm | - | 336 W/m² | - |
| 1778042891 | 22.78° C | 52% | 1017.1 hPa | 0 mm | - | 67 W/m² | - |
| 1778041998 | 22.78° C | 56% | 1017 hPa | 0 mm | - | 84 W/m² | - |
| 1778041090 | 22.78° C | 55% | 1017.1 hPa | 0 mm | - | 74 W/m² | - |
| 1778040191 | 22.78° C | 54% | 1017.2 hPa | 0 mm | - | 473 W/m² | - |
| 1778039292 | 23.33° C | 53% | 1017.4 hPa | 0 mm | - | 541 W/m² | - |
| 1778038391 | 23.33° C | 55% | 1017.8 hPa | 0 mm | - | 619 W/m² | - |
| 1778037497 | 23.33° C | 55% | 1018 hPa | 0 mm | - | 603 W/m² | - |
| 1778036590 | 23.33° C | 54% | 1018.3 hPa | 0 mm | - | 621 W/m² | - |
| 1778035697 | 22.78° C | 55% | 1018.4 hPa | 0 mm | - | 680 W/m² | - |
| 1778034790 | 22.78° C | 56% | 1018.8 hPa | 0 mm | - | 174 W/m² | - |
| 1778033899 | 22.78° C | 58% | 1019.1 hPa | 0 mm | - | 675 W/m² | - |
| 1778032993 | 22.22° C | 59% | 1019.3 hPa | 0 mm | - | 666 W/m² | - |
* Rain latest hour (hover to see other rain measurements)
** Current wind speed in m/s (hover to see current wind gust speed)